Time;durP1;ratioP1;P1;durP2;ratioP2;P2;SDS_P1;SDS_P2;PMS_P1;PMS_P2;Temp;Humidity;BMP_temperature;BMP_pressure;BME280_temperature;BME280_humidity;BME280_pressure;Samples;Min_cycle;Max_cycle;Signal;HPM_P1;HPM_P2
2023/01/22 00:08:09;;;;;;;5.30;0.90;;;;;;;;;;20998992;28;20044;-69
2023/01/22 00:18:30;;;;;;;1.45;0.70;;;;;;;;;;21005253;28;20082;-67
2023/01/22 00:28:52;;;;;;;1.40;0.70;;;;;;;;;;20998673;28;20048;-70
2023/01/22 00:39:12;;;;;;;1.73;0.70;;;;;;;;;;21004311;28;20123;-68
2023/01/22 00:49:33;;;;;;;1.33;0.60;;;;;;;;;;21035757;28;20045;-70
2023/01/22 00:59:55;;;;;;;2.47;0.60;;;;;;;;;;21027990;28;20473;-64
2023/01/22 01:10:05;;;;;;;0.90;0.60;;;;;;;;;;21011214;28;20048;-68
2023/01/22 01:20:18;;;;;;;2.85;1.30;;;;;;;;;;21010619;28;20044;-65
2023/01/22 01:30:31;;;;;;;2.95;0.77;;;;;;;;;;21012648;28;20055;-65
2023/01/22 01:40:43;;;;;;;2.50;0.80;;;;;;;;;;21007992;28;20493;-65
2023/01/22 01:50:56;;;;;;;3.45;0.57;;;;;;;;;;21008817;28;20122;-71
2023/01/22 02:01:15;;;;;;;2.58;0.80;;;;;;;;;;21006851;28;20052;-67
2023/01/22 02:11:25;;;;;;;1.08;0.50;;;;;;;;;;21006979;28;20056;-67
2023/01/22 02:21:46;;;;;;;2.10;0.98;;;;;;;;;;21009117;28;20113;-68
2023/01/22 02:32:08;;;;;;;2.38;0.90;;;;;;;;;;21005743;28;20489;-69
2023/01/22 02:42:29;;;;;;;2.50;0.85;;;;;;;;;;21004741;28;20060;-71
2023/01/22 02:52:51;;;;;;;2.70;1.25;;;;;;;;;;21023366;28;20048;-69
2023/01/22 03:03:14;;;;;;;1.98;1.05;;;;;;;;;;21008290;28;20059;-68
2023/01/22 03:24:10;;;;;;;2.90;0.80;;;;;;;;;;21005414;28;20048;-69
2023/01/22 03:34:32;;;;;;;1.98;0.75;;;;;;;;;;21007705;28;20122;-69
2023/01/22 03:44:53;;;;;;;1.30;0.63;;;;;;;;;;21013838;28;20059;-67
2023/01/22 03:55:15;;;;;;;2.45;0.70;;;;;;;;;;21007220;28;20044;-67
2023/01/22 04:05:37;;;;;;;1.35;0.65;;;;;;;;;;21004416;28;20057;-67
2023/01/22 04:16:00;;;;;;;2.38;1.17;;;;;;;;;;21007273;28;20044;-70
2023/01/22 04:26:17;;;;;;;3.58;0.65;;;;;;;;;;21017658;28;20492;-69
2023/01/22 04:36:23;;;;;;;1.85;0.75;;;;;;;;;;21018392;28;20054;-69
2023/01/22 04:46:45;;;;;;;1.75;0.70;;;;;;;;;;21028275;28;20052;-68
2023/01/22 04:56:49;;;;;;;2.15;0.88;;;;;;;;;;21033645;28;20052;-64
2023/01/22 05:06:51;;;;;;;2.15;0.60;;;;;;;;;;21021101;28;20056;-66
2023/01/22 05:16:55;;;;;;;3.03;0.90;;;;;;;;;;21027645;28;20032;-65
2023/01/22 05:26:59;;;;;;;1.77;0.80;;;;;;;;;;21030412;28;20048;-72
2023/01/22 05:37:02;;;;;;;1.88;0.77;;;;;;;;;;21011727;28;20075;-66
2023/01/22 05:47:05;;;;;;;2.20;0.77;;;;;;;;;;21011467;28;20193;-66
2023/01/22 05:57:07;;;;;;;2.33;0.80;;;;;;;;;;21010821;28;20094;-71
2023/01/22 06:07:09;;;;;;;1.83;0.82;;;;;;;;;;21010672;28;20118;-67
2023/01/22 06:17:12;;;;;;;2.35;0.98;;;;;;;;;;21010339;28;20124;-68
2023/01/22 06:27:15;;;;;;;2.47;0.80;;;;;;;;;;21007653;28;20048;-64
2023/01/22 06:37:17;;;;;;;2.30;0.80;;;;;;;;;;21008032;28;20052;-66
2023/01/22 06:47:19;;;;;;;1.55;0.73;;;;;;;;;;21010494;28;20459;-68
2023/01/22 06:57:21;;;;;;;3.85;1.10;;;;;;;;;;21006917;28;20054;-66
2023/01/22 07:07:24;;;;;;;5.00;1.42;;;;;;;;;;21005741;28;20087;-66
2023/01/22 07:17:27;;;;;;;5.00;1.17;;;;;;;;;;21007806;28;20074;-64
2023/01/22 07:27:31;;;;;;;6.38;2.17;;;;;;;;;;21002641;28;20135;-66
2023/01/22 07:37:35;;;;;;;4.00;1.90;;;;;;;;;;21000737;28;20409;-65
2023/01/22 07:47:37;;;;;;;6.15;2.30;;;;;;;;;;21001420;28;20052;-68
2023/01/22 07:57:39;;;;;;;5.78;2.35;;;;;;;;;;21000977;28;20052;-68
2023/01/22 08:07:41;;;;;;;8.45;2.30;;;;;;;;;;21002849;28;20083;-69
2023/01/22 08:17:43;;;;;;;2.20;1.20;;;;;;;;;;21000248;28;20056;-67
2023/01/22 08:27:45;;;;;;;4.20;1.95;;;;;;;;;;20999347;28;20397;-66
2023/01/22 08:37:47;;;;;;;3.80;1.60;;;;;;;;;;21002036;28;20048;-69
2023/01/22 08:47:50;;;;;;;4.45;1.90;;;;;;;;;;21009926;28;20053;-65
2023/01/22 08:57:53;;;;;;;4.47;2.00;;;;;;;;;;21013139;28;20051;-65
2023/01/22 09:07:55;;;;;;;10.23;4.25;;;;;;;;;;21026609;28;20135;-79
2023/01/22 09:17:59;;;;;;;8.15;3.90;;;;;;;;;;21025212;28;20076;-70
2023/01/22 09:28:03;;;;;;;6.85;2.25;;;;;;;;;;21010612;28;20064;-67
2023/01/22 09:38:05;;;;;;;3.83;1.13;;;;;;;;;;21013022;28;20416;-70
2023/01/22 09:48:12;;;;;;;2.63;1.08;;;;;;;;;;21014003;28;20052;-70
2023/01/22 09:58:16;;;;;;;3.15;1.20;;;;;;;;;;21014176;28;20044;-71
2023/01/22 10:08:33;;;;;;;3.42;0.85;;;;;;;;;;21020400;28;20055;-67
2023/01/22 10:18:53;;;;;;;5.93;0.82;;;;;;;;;;21023763;28;20048;-65
2023/01/22 10:28:57;;;;;;;1.90;1.27;;;;;;;;;;21016667;28;20045;-72
2023/01/22 10:39:08;;;;;;;3.47;1.45;;;;;;;;;;21012689;28;20049;-72
2023/01/22 10:49:15;;;;;;;2.65;1.13;;;;;;;;;;20991544;28;20052;-69
2023/01/22 10:59:26;;;;;;;2.28;1.02;;;;;;;;;;21005746;28;20436;-68
2023/01/22 11:09:37;;;;;;;2.42;0.90;;;;;;;;;;21002058;28;20400;-67
2023/01/22 11:19:44;;;;;;;2.53;1.08;;;;;;;;;;21001250;28;20040;-67
2023/01/22 11:29:53;;;;;;;1.67;0.80;;;;;;;;;;21000259;28;20048;-67
2023/01/22 11:40:15;;;;;;;1.48;0.98;;;;;;;;;;20999922;28;20053;-67
2023/01/22 11:50:36;;;;;;;1.90;1.15;;;;;;;;;;21000150;28;20143;-67
2023/01/22 12:00:38;;;;;;;2.92;0.95;;;;;;;;;;21000322;28;20041;-68
2023/01/22 12:10:40;;;;;;;1.38;0.60;;;;;;;;;;20998066;28;20068;-65
2023/01/22 12:20:59;;;;;;;1.48;0.70;;;;;;;;;;20996852;28;20122;-66
2023/01/22 12:31:05;;;;;;;1.50;0.70;;;;;;;;;;20996567;28;20412;-67
2023/01/22 12:41:13;;;;;;;1.63;0.80;;;;;;;;;;21002890;28;20052;-67
2023/01/22 12:51:24;;;;;;;1.92;0.77;;;;;;;;;;21010938;28;20044;-67
2023/01/22 13:01:33;;;;;;;3.00;0.80;;;;;;;;;;21008658;28;20044;-67
2023/01/22 13:11:37;;;;;;;2.35;0.90;;;;;;;;;;21005499;28;20158;-67
2023/01/22 13:21:40;;;;;;;3.90;1.20;;;;;;;;;;21004389;28;20087;-68
2023/01/22 13:31:50;;;;;;;1.40;0.88;;;;;;;;;;21005596;28;20051;-68
2023/01/22 13:41:56;;;;;;;2.83;1.30;;;;;;;;;;20986588;28;20056;-68
2023/01/22 13:52:01;;;;;;;1.80;0.98;;;;;;;;;;21003697;28;20049;-68
2023/01/22 14:02:24;;;;;;;2.28;1.25;;;;;;;;;;21002082;28;20064;-67
2023/01/22 14:12:29;;;;;;;1.95;1.10;;;;;;;;;;20983059;28;20054;-67
2023/01/22 14:22:32;;;;;;;3.70;2.42;;;;;;;;;;21000588;28;20492;-67
2023/01/22 14:32:34;;;;;;;2.17;1.10;;;;;;;;;;21000409;28;20041;-67
2023/01/22 14:42:37;;;;;;;1.48;0.80;;;;;;;;;;21000505;28;20057;-67
2023/01/22 14:52:39;;;;;;;5.35;1.27;;;;;;;;;;21000460;28;20068;-67
2023/01/22 15:02:41;;;;;;;9.23;1.50;;;;;;;;;;21000810;28;20056;-66
2023/01/22 15:12:50;;;;;;;2.42;0.90;;;;;;;;;;21000073;28;20365;-67
2023/01/22 15:22:53;;;;;;;4.15;1.10;;;;;;;;;;20999404;28;20132;-68
2023/01/22 15:32:55;;;;;;;3.10;1.13;;;;;;;;;;20998912;28;20094;-68
2023/01/22 15:42:57;;;;;;;2.25;1.08;;;;;;;;;;20997800;28;20056;-67
2023/01/22 15:52:59;;;;;;;2.15;0.90;;;;;;;;;;20996850;28;20040;-67
2023/01/22 16:03:01;;;;;;;3.38;1.00;;;;;;;;;;20997968;28;20106;-68
2023/01/22 16:13:03;;;;;;;3.05;0.98;;;;;;;;;;21008503;28;20523;-71
2023/01/22 16:23:07;;;;;;;2.58;1.42;;;;;;;;;;21016263;28;20112;-67
2023/01/22 16:33:17;;;;;;;1.70;0.90;;;;;;;;;;21018086;28;20059;-68
2023/01/22 16:43:20;;;;;;;0.98;0.75;;;;;;;;;;21023768;28;20092;-68
2023/01/22 16:53:21;;;;;;;1.88;0.70;;;;;;;;;;21016892;28;20041;-67
2023/01/22 17:03:23;;;;;;;3.35;1.10;;;;;;;;;;21009424;28;20052;-69
2023/01/22 17:13:27;;;;;;;3.05;1.38;;;;;;;;;;21016185;28;20060;-67
2023/01/22 17:23:30;;;;;;;2.25;0.90;;;;;;;;;;20992419;28;20056;-68
2023/01/22 17:33:32;;;;;;;2.70;1.60;;;;;;;;;;21005646;28;20056;-68
2023/01/22 17:43:35;;;;;;;3.22;1.95;;;;;;;;;;21005827;28;20052;-66
2023/01/22 17:53:39;;;;;;;3.45;1.65;;;;;;;;;;21007030;28;20106;-68
2023/01/22 18:03:41;;;;;;;2.55;1.67;;;;;;;;;;21008458;28;20146;-69
2023/01/22 18:13:43;;;;;;;3.22;1.70;;;;;;;;;;21005665;28;20063;-67
2023/01/22 18:23:46;;;;;;;6.53;1.42;;;;;;;;;;21004876;28;20063;-64
2023/01/22 18:33:50;;;;;;;3.80;2.50;;;;;;;;;;20988567;28;20056;-69
2023/01/22 18:43:54;;;;;;;13.02;7.93;;;;;;;;;;20986293;28;20135;-68
2023/01/22 18:53:56;;;;;;;26.80;12.60;;;;;;;;;;21004831;28;20110;-66
2023/01/22 19:03:59;;;;;;;11.85;6.70;;;;;;;;;;20998477;28;20094;-69
2023/01/22 19:14:02;;;;;;;7.28;3.60;;;;;;;;;;20999195;28;20082;-70
2023/01/22 19:24:04;;;;;;;6.15;3.75;;;;;;;;;;20998484;28;20058;-69
2023/01/22 19:34:07;;;;;;;7.85;6.20;;;;;;;;;;21000322;28;20048;-69
2023/01/22 19:44:10;;;;;;;10.52;7.13;;;;;;;;;;20999587;28;20048;-68
2023/01/22 19:54:14;;;;;;;9.50;6.50;;;;;;;;;;21008441;28;20116;-70
2023/01/22 20:04:28;;;;;;;11.23;7.28;;;;;;;;;;21008947;28;20305;-67
2023/01/22 20:14:31;;;;;;;11.38;7.25;;;;;;;;;;20999786;28;20069;-66
2023/01/22 20:24:33;;;;;;;16.27;9.00;;;;;;;;;;21003582;28;20055;-68
2023/01/22 20:34:36;;;;;;;10.90;7.65;;;;;;;;;;21003103;28;20064;-68
2023/01/22 20:44:38;;;;;;;15.88;9.20;;;;;;;;;;21007716;28;20049;-67
2023/01/22 20:54:40;;;;;;;35.42;20.27;;;;;;;;;;21010640;28;20048;-67
2023/01/22 21:04:42;;;;;;;12.20;6.93;;;;;;;;;;21017324;28;20048;-68
2023/01/22 21:14:44;;;;;;;17.75;9.25;;;;;;;;;;21019831;28;20071;-69
2023/01/22 21:24:46;;;;;;;15.85;6.35;;;;;;;;;;21019706;28;20080;-72
2023/01/22 21:34:48;;;;;;;21.55;10.35;;;;;;;;;;21018440;28;20468;-68
2023/01/22 21:55:10;;;;;;;8.60;3.75;;;;;;;;;;21011091;28;20131;-69
2023/01/22 22:05:12;;;;;;;6.80;3.67;;;;;;;;;;21010681;28;20055;-68
2023/01/22 22:15:14;;;;;;;7.88;4.38;;;;;;;;;;21015893;28;20068;-67
2023/01/22 22:25:16;;;;;;;11.80;6.45;;;;;;;;;;21022019;28;20053;-68
2023/01/22 22:35:18;;;;;;;10.85;5.40;;;;;;;;;;21012866;28;20055;-67
2023/01/22 22:45:21;;;;;;;13.40;6.68;;;;;;;;;;21008755;28;20136;-69
2023/01/22 22:55:25;;;;;;;11.73;6.50;;;;;;;;;;21008915;28;20136;-67
2023/01/22 23:05:27;;;;;;;14.07;6.18;;;;;;;;;;21008951;28;20059;-68
2023/01/22 23:15:30;;;;;;;22.98;11.40;;;;;;;;;;21000536;28;20094;-66
2023/01/22 23:25:32;;;;;;;9.77;5.93;;;;;;;;;;21004332;28;20056;-67
2023/01/22 23:35:50;;;;;;;22.90;10.77;;;;;;;;;;21017225;28;20048;-68
2023/01/22 23:46:12;;;;;;;9.82;5.53;;;;;;;;;;21007478;28;20048;-71
2023/01/22 23:56:30;;;;;;;6.75;4.45;;;;;;;;;;20999086;28;20113;-67
